Main page
METAR-TAF:

METAR-TAF

Airports :

Saint-Denis, Réunion

Roland Garros Airport

latitude: 20-53S, longitude: 055-31E, elevation: 21 m

Current weather observation

The report was made 30 minutes ago, at 07:00 UTC
Wind 14 kt from the East
Temperature 26°C
Humidity 70%
Pressure 1019 hPa
Visibility 10 km or more
Scattered clouds at a height of 3000 ft

METAR: FMEE 260700Z 10014KT 9999 SCT030 26/20 Q1019 NOSIG

Time: 11:30 (07:30 UTC)

Forecast

The report was made 2 hours and 30 minutes ago, at 05:00 UTC
Forecast valid from 26 at 06 UTC to 27 at 12 UTC
Wind 14 kt from the East
Visibility 10 km or more
Few clouds at a height of 3000 ft
Probability 30% :
Temporary
from 26 at 09 UTC to 26 at 15 UTC
Visibility: 4500 m
rain showers
Becoming
from 26 at 15 UTC to 26 at 17 UTC
Wind 8 kt from the South
Becoming
from 27 at 04 UTC to 27 at 06 UTC
Wind 14 kt from the East

TAF: FMEE 260500Z 2606/2712 09014KT 9999 FEW030 PROB30 TEMPO 2609/2615 4500 SHRA BECMG 2615/2617 17008KT BECMG 2704/2706 10014KT

Weather observations and forecasts of more than 4000 airports (METAR and TAF reports).

The available stations are represented by yellow and red dots on the map.

Hover mouse over dot to see the name of the station.

Then click to see weather observations and forecasts.

To change the map : click on the green buttons with a black cross to zoom in, on the green button with a dash to zoom out, or on the green arrows for adjacent maps.


METAR-TAF: